Time;durP1;ratioP1;P1;durP2;ratioP2;P2;SDS_P1;SDS_P2;PMS_P1;PMS_P2;Temp;Humidity;BMP_temperature;BMP_pressure;BME280_temperature;BME280_humidity;BME280_pressure;Samples;Min_cycle;Max_cycle;Signal;HPM_P1;HPM_P2
2023/12/25 00:01:03;;;;;;;1.20;0.83;;;11.20;99.90;;;;;;5093621;28;20595;-76
2023/12/25 00:03:30;;;;;;;2.27;0.90;;;11.20;99.90;;;;;;5093985;28;20256;-74
2023/12/25 00:05:56;;;;;;;2.93;0.80;;;11.10;99.90;;;;;;5093677;28;20189;-75
2023/12/25 00:08:21;;;;;;;2.97;0.90;;;11.20;99.90;;;;;;5092229;28;20663;-75
2023/12/25 00:10:47;;;;;;;2.57;0.90;;;11.20;99.90;;;;;;5091988;28;20197;-74
2023/12/25 00:13:12;;;;;;;2.50;1.17;;;11.10;99.90;;;;;;5091108;28;20283;-75
2023/12/25 00:15:38;;;;;;;1.60;0.80;;;11.10;99.90;;;;;;5093616;28;20507;-75
2023/12/25 00:18:04;;;;;;;1.67;0.97;;;11.10;99.90;;;;;;5093568;28;20174;-75
2023/12/25 00:20:29;;;;;;;4.37;1.30;;;11.20;99.90;;;;;;5093456;28;20171;-74
2023/12/25 00:22:55;;;;;;;2.33;0.80;;;11.20;99.90;;;;;;5093368;28;20174;-76
2023/12/25 00:25:21;;;;;;;2.27;1.40;;;11.20;99.90;;;;;;5091957;28;20260;-74
2023/12/25 00:27:46;;;;;;;2.97;1.17;;;11.20;99.90;;;;;;5091845;28;20240;-75
2023/12/25 00:30:12;;;;;;;4.00;1.03;;;11.30;99.90;;;;;;5093049;28;20594;-74
2023/12/25 00:32:38;;;;;;;2.30;0.93;;;11.20;99.90;;;;;;5092848;28;20216;-75
2023/12/25 00:35:04;;;;;;;3.47;1.20;;;11.30;99.90;;;;;;5091607;28;20180;-75
2023/12/25 00:37:30;;;;;;;2.40;0.90;;;11.20;99.90;;;;;;5093453;28;20257;-75
2023/12/25 00:39:56;;;;;;;2.40;1.20;;;11.30;99.90;;;;;;5091536;28;20174;-75
2023/12/25 00:42:21;;;;;;;2.87;1.10;;;11.40;99.90;;;;;;5092841;28;20607;-75
2023/12/25 00:44:47;;;;;;;2.33;0.90;;;11.40;99.90;;;;;;5092831;28;20174;-75
2023/12/25 00:47:12;;;;;;;3.57;1.07;;;11.40;99.90;;;;;;5092745;28;20569;-75
2023/12/25 00:49:38;;;;;;;2.23;1.10;;;11.40;99.90;;;;;;5091589;28;20306;-74
2023/12/25 00:52:04;;;;;;;3.13;1.27;;;11.40;99.90;;;;;;5092644;28;20198;-75
2023/12/25 00:54:31;;;;;;;1.90;0.90;;;11.50;99.90;;;;;;5091183;28;20174;-74
2023/12/25 00:56:57;;;;;;;3.17;1.00;;;11.40;99.90;;;;;;5092646;28;20173;-75
2023/12/25 00:59:23;;;;;;;2.40;0.93;;;11.50;99.90;;;;;;5092846;28;20536;-75
2023/12/25 01:01:49;;;;;;;1.73;0.93;;;11.50;99.90;;;;;;5091147;28;20198;-75
2023/12/25 01:04:14;;;;;;;2.57;0.90;;;11.50;99.90;;;;;;5091123;28;20649;-75
2023/12/25 01:06:40;;;;;;;2.93;1.10;;;11.50;99.90;;;;;;5091173;28;20185;-75
2023/12/25 01:09:05;;;;;;;1.37;0.90;;;11.60;99.90;;;;;;5092495;28;20193;-75
2023/12/25 01:11:31;;;;;;;4.10;0.90;;;11.50;99.90;;;;;;5090962;28;20225;-74
2023/12/25 01:13:56;;;;;;;1.70;0.90;;;11.60;99.90;;;;;;5092356;28;20197;-76
2023/12/25 01:16:23;;;;;;;2.50;0.90;;;11.60;99.90;;;;;;5092523;28;20640;-76
2023/12/25 01:18:49;;;;;;;3.47;1.07;;;11.60;99.90;;;;;;5092540;28;20162;-76
2023/12/25 01:21:15;;;;;;;3.03;1.10;;;11.60;99.90;;;;;;5092749;28;20201;-76
2023/12/25 01:23:40;;;;;;;2.10;1.03;;;11.60;99.90;;;;;;5090820;28;20512;-77
2023/12/25 01:26:06;;;;;;;1.73;1.10;;;11.60;99.90;;;;;;5092346;28;20182;-76
2023/12/25 01:28:31;;;;;;;1.87;1.13;;;11.60;99.90;;;;;;5092738;28;20653;-76
2023/12/25 01:30:57;;;;;;;2.30;0.93;;;11.60;99.90;;;;;;5092170;28;20632;-77
2023/12/25 01:33:22;;;;;;;1.57;0.87;;;11.60;99.90;;;;;;5092098;28;20277;-76
2023/12/25 01:35:49;;;;;;;2.27;0.90;;;11.50;99.90;;;;;;5092796;28;20625;-76
2023/12/25 01:38:14;;;;;;;2.77;1.10;;;11.60;99.90;;;;;;5092194;28;20258;-76
2023/12/25 01:40:44;;;;;;;1.13;0.70;;;11.60;99.90;;;;;;5092118;28;20196;-77
2023/12/25 01:43:09;;;;;;;2.53;0.80;;;11.60;99.90;;;;;;5092428;28;20178;-76
2023/12/25 01:45:35;;;;;;;4.03;1.20;;;11.60;99.90;;;;;;5092083;28;20192;-75
2023/12/25 01:48:00;;;;;;;1.63;0.70;;;11.60;99.90;;;;;;5092353;28;20276;-76
2023/12/25 01:50:28;;;;;;;2.30;0.90;;;11.50;99.90;;;;;;5091888;28;20197;-77
2023/12/25 01:52:54;;;;;;;1.33;0.80;;;11.50;99.90;;;;;;5090713;28;20206;-76
2023/12/25 01:55:19;;;;;;;1.10;0.80;;;11.60;99.90;;;;;;5090704;28;20178;-75
2023/12/25 01:57:45;;;;;;;2.40;0.90;;;11.50;99.90;;;;;;5091838;28;20638;-76
2023/12/25 02:00:11;;;;;;;1.73;0.70;;;11.50;99.90;;;;;;5092229;28;20170;-76
2023/12/25 02:02:36;;;;;;;1.90;0.93;;;11.50;99.90;;;;;;5091986;28;20198;-76
2023/12/25 02:05:03;;;;;;;1.73;1.00;;;11.50;99.90;;;;;;5092126;28;20174;-76
2023/12/25 02:07:29;;;;;;;2.50;0.90;;;11.50;99.90;;;;;;5090604;28;20691;-76
2023/12/25 02:09:55;;;;;;;2.17;0.80;;;11.50;99.90;;;;;;5092186;28;20212;-77
2023/12/25 02:12:20;;;;;;;2.00;0.90;;;11.50;99.90;;;;;;5091911;28;20206;-77
2023/12/25 02:14:46;;;;;;;2.40;0.93;;;11.50;99.90;;;;;;5090759;28;20634;-76
2023/12/25 02:17:12;;;;;;;2.50;1.00;;;11.60;99.90;;;;;;5090637;28;20181;-77
2023/12/25 02:19:40;;;;;;;1.83;0.97;;;11.60;99.90;;;;;;5092098;28;20170;-76
2023/12/25 02:22:07;;;;;;;1.87;1.00;;;11.50;99.90;;;;;;5091817;28;20197;-77
2023/12/25 02:24:35;;;;;;;1.27;0.87;;;11.60;99.90;;;;;;5091855;28;20185;-76
2023/12/25 02:27:01;;;;;;;2.43;0.70;;;11.60;99.90;;;;;;5091929;28;20174;-76
2023/12/25 02:29:27;;;;;;;2.57;0.70;;;11.50;99.90;;;;;;5090490;28;20178;-75
2023/12/25 02:31:52;;;;;;;0.93;0.80;;;11.60;99.90;;;;;;5090143;28;20253;-76
2023/12/25 02:34:18;;;;;;;2.70;0.90;;;11.60;99.90;;;;;;5090227;28;20654;-76
2023/12/25 02:36:43;;;;;;;0.90;0.80;;;11.60;99.90;;;;;;5093379;28;20208;-77
2023/12/25 02:39:09;;;;;;;3.10;0.67;;;11.60;99.90;;;;;;5094133;28;20193;-77
2023/12/25 02:41:35;;;;;;;1.87;0.70;;;11.50;99.90;;;;;;5093992;28;20251;-76
2023/12/25 02:44:00;;;;;;;0.70;0.70;;;11.60;99.90;;;;;;5094094;28;20182;-76
2023/12/25 02:46:26;;;;;;;2.03;0.90;;;11.60;99.90;;;;;;5095513;28;20668;-76
2023/12/25 02:48:51;;;;;;;0.80;0.60;;;11.60;99.90;;;;;;5095403;28;20213;-77
2023/12/25 02:51:17;;;;;;;1.67;0.70;;;11.50;99.90;;;;;;5095315;28;20558;-77
2023/12/25 02:53:43;;;;;;;7.03;1.03;;;11.50;99.90;;;;;;5093790;28;20194;-76
2023/12/25 02:56:08;;;;;;;4.07;0.90;;;11.50;99.90;;;;;;5095280;28;20170;-76
2023/12/25 02:58:34;;;;;;;1.53;0.73;;;11.50;99.90;;;;;;5093786;28;20235;-77
2023/12/25 03:00:59;;;;;;;1.20;0.90;;;11.50;99.90;;;;;;5094254;28;20205;-76
2023/12/25 03:03:25;;;;;;;3.27;0.73;;;11.50;99.90;;;;;;5095017;28;20185;-75
2023/12/25 03:05:50;;;;;;;2.20;1.00;;;11.60;99.90;;;;;;5093602;28;20188;-77
2023/12/25 03:08:16;;;;;;;2.23;1.10;;;11.60;99.90;;;;;;5094982;28;20651;-76
2023/12/25 03:10:42;;;;;;;2.10;0.90;;;11.60;99.90;;;;;;5093531;28;20225;-76
2023/12/25 03:13:07;;;;;;;1.27;0.83;;;11.60;99.90;;;;;;5094812;28;20545;-76
2023/12/25 03:15:34;;;;;;;2.30;1.00;;;11.70;99.90;;;;;;5094149;28;20182;-77
2023/12/25 03:17:59;;;;;;;1.37;0.80;;;11.70;99.90;;;;;;5094752;28;20666;-77
2023/12/25 03:20:25;;;;;;;1.17;0.90;;;11.70;99.90;;;;;;5094447;28;20253;-76
2023/12/25 03:22:50;;;;;;;2.43;1.40;;;11.80;99.90;;;;;;5093145;28;20273;-77
2023/12/25 03:25:16;;;;;;;2.67;0.97;;;11.80;99.90;;;;;;5094682;28;20178;-77
2023/12/25 03:27:42;;;;;;;1.70;0.90;;;11.80;99.90;;;;;;5094565;28;20174;-75
2023/12/25 03:30:07;;;;;;;1.33;0.83;;;11.80;99.90;;;;;;5094555;28;20200;-77
2023/12/25 03:32:34;;;;;;;2.10;0.93;;;11.80;99.90;;;;;;5093137;28;20267;-76
2023/12/25 03:34:59;;;;;;;2.17;0.70;;;11.80;99.90;;;;;;5094591;28;20171;-76
2023/12/25 03:37:25;;;;;;;2.33;0.70;;;11.80;99.90;;;;;;5093099;28;20178;-76
2023/12/25 03:39:51;;;;;;;1.93;0.80;;;11.80;99.90;;;;;;5094219;28;20166;-76
2023/12/25 03:42:17;;;;;;;1.27;0.60;;;11.80;99.90;;;;;;5092985;28;20198;-77
2023/12/25 03:44:43;;;;;;;1.87;0.63;;;11.80;99.90;;;;;;5092929;28;20629;-76
2023/12/25 03:47:08;;;;;;;2.70;0.70;;;11.80;99.90;;;;;;5092888;28;20178;-76
2023/12/25 03:49:34;;;;;;;2.30;0.50;;;11.80;99.90;;;;;;5092818;28;20182;-77
2023/12/25 03:51:59;;;;;;;1.97;0.60;;;11.80;99.90;;;;;;5092709;28;20190;-75
2023/12/25 03:54:25;;;;;;;1.00;0.60;;;11.80;99.90;;;;;;5093783;28;20553;-76
2023/12/25 03:56:51;;;;;;;0.60;0.50;;;11.80;99.90;;;;;;5091905;28;20560;-76
2023/12/25 03:59:16;;;;;;;0.87;0.60;;;11.90;99.90;;;;;;5092520;28;20352;-76
2023/12/25 04:01:42;;;;;;;0.87;0.70;;;11.90;99.90;;;;;;5093587;28;20272;-75
2023/12/25 04:04:07;;;;;;;1.87;0.60;;;11.90;99.90;;;;;;5092216;28;20273;-77
2023/12/25 04:06:33;;;;;;;0.50;0.50;;;11.90;99.90;;;;;;5091165;28;20326;-77
2023/12/25 04:08:59;;;;;;;1.70;0.50;;;11.90;99.90;;;;;;5093727;28;20177;-77
2023/12/25 04:11:24;;;;;;;0.70;0.70;;;11.90;99.90;;;;;;5092202;28;20230;-75
2023/12/25 04:13:53;;;;;;;2.07;0.77;;;11.90;99.90;;;;;;5092146;28;20209;-76
2023/12/25 04:16:26;;;;;;;0.60;0.50;;;11.90;99.90;;;;;;5092482;28;20174;-77
2023/12/25 04:18:53;;;;;;;1.93;0.80;;;11.90;99.90;;;;;;5092224;28;20197;-77
2023/12/25 04:21:22;;;;;;;1.53;0.80;;;12.00;99.90;;;;;;5092153;28;20191;-76
2023/12/25 04:23:49;;;;;;;2.17;0.77;;;11.90;99.90;;;;;;5093349;28;20181;-76
2023/12/25 04:26:15;;;;;;;1.27;0.80;;;11.90;99.90;;;;;;5093326;28;20288;-76
2023/12/25 04:28:40;;;;;;;0.80;0.70;;;11.90;99.90;;;;;;5093510;28;20179;-75
2023/12/25 04:31:06;;;;;;;1.57;0.90;;;11.90;99.90;;;;;;5093042;28;20272;-77
2023/12/25 04:33:31;;;;;;;1.97;0.70;;;11.90;99.90;;;;;;5092987;28;20214;-77
2023/12/25 04:35:57;;;;;;;1.13;0.80;;;11.90;99.90;;;;;;5091948;28;20171;-76
2023/12/25 04:38:22;;;;;;;1.20;0.80;;;11.90;99.90;;;;;;5093473;28;20175;-76
2023/12/25 04:40:50;;;;;;;3.53;0.70;;;11.80;99.90;;;;;;5093102;28;20222;-76
2023/12/25 04:43:15;;;;;;;1.90;0.90;;;11.90;99.90;;;;;;5093053;28;20202;-77
2023/12/25 04:45:41;;;;;;;2.10;0.80;;;11.90;99.90;;;;;;5091718;28;20213;-76
2023/12/25 04:48:07;;;;;;;0.83;0.70;;;11.80;99.90;;;;;;5092985;28;20178;-75
2023/12/25 04:50:33;;;;;;;1.07;0.50;;;11.80;99.90;;;;;;5091459;28;20178;-76
2023/12/25 04:52:59;;;;;;;0.93;0.67;;;11.80;99.90;;;;;;5092771;28;20186;-76
2023/12/25 04:55:26;;;;;;;1.10;0.60;;;11.80;99.90;;;;;;5093169;28;20173;-76
2023/12/25 04:57:51;;;;;;;1.13;0.50;;;11.80;99.90;;;;;;5091049;28;20261;-76
2023/12/25 05:00:17;;;;;;;1.80;0.80;;;11.80;99.90;;;;;;5091080;28;20262;-76
2023/12/25 05:02:42;;;;;;;1.90;0.63;;;11.80;99.90;;;;;;5091362;28;20185;-76
2023/12/25 05:05:08;;;;;;;0.90;0.50;;;11.70;99.90;;;;;;5092872;28;20220;-76
2023/12/25 05:07:33;;;;;;;0.60;0.40;;;11.70;99.90;;;;;;5093186;28;20170;-76
2023/12/25 05:09:59;;;;;;;2.00;0.50;;;11.60;99.90;;;;;;5092650;28;20590;-76
2023/12/25 05:12:24;;;;;;;0.40;0.40;;;11.70;99.90;;;;;;5091212;28;20234;-76
2023/12/25 05:14:50;;;;;;;1.07;0.50;;;11.70;99.90;;;;;;5091231;28;20177;-77
2023/12/25 05:17:17;;;;;;;0.67;0.40;;;11.70;99.90;;;;;;5092732;28;20194;-77
2023/12/25 05:19:43;;;;;;;4.53;0.60;;;11.70;99.90;;;;;;5092392;28;20173;-76
2023/12/25 05:22:08;;;;;;;0.60;0.23;;;11.60;99.90;;;;;;5092423;28;20194;-76
2023/12/25 05:24:34;;;;;;;1.83;0.60;;;11.60;99.90;;;;;;5092762;28;20538;-77
2023/12/25 05:26:59;;;;;;;1.77;0.67;;;11.60;99.90;;;;;;5090896;28;20170;-76
2023/12/25 05:29:25;;;;;;;1.63;0.50;;;11.80;99.90;;;;;;5092154;28;20229;-76
2023/12/25 05:31:50;;;;;;;1.80;0.40;;;11.60;99.90;;;;;;5090771;28;20210;-75
2023/12/25 05:34:16;;;;;;;0.63;0.33;;;11.60;99.90;;;;;;5092434;28;20250;-75
2023/12/25 05:36:41;;;;;;;0.77;0.40;;;11.60;99.90;;;;;;5092327;28;20217;-76
2023/12/25 05:39:08;;;;;;;0.77;0.30;;;11.70;99.90;;;;;;5090757;28;20284;-76
2023/12/25 05:41:34;;;;;;;0.63;0.30;;;11.70;99.90;;;;;;5092152;28;20186;-76
2023/12/25 05:44:00;;;;;;;0.10;0.10;;;11.60;99.90;;;;;;5092183;28;20574;-75
2023/12/25 05:46:25;;;;;;;0.53;0.30;;;11.60;99.90;;;;;;5090874;28;20204;-76
2023/12/25 05:48:51;;;;;;;0.73;0.30;;;11.60;99.90;;;;;;5092071;28;20182;-77
2023/12/25 05:51:16;;;;;;;0.90;0.30;;;11.60;99.90;;;;;;5092033;28;20210;-76
2023/12/25 05:53:42;;;;;;;0.30;0.30;;;11.60;99.90;;;;;;5092289;28;20265;-76
2023/12/25 05:56:07;;;;;;;0.40;0.30;;;11.60;99.90;;;;;;5090798;28;20221;-76
2023/12/25 05:58:33;;;;;;;0.30;0.20;;;11.60;99.90;;;;;;5090590;28;20166;-77
2023/12/25 06:00:59;;;;;;;1.13;0.40;;;11.60;99.90;;;;;;5092103;28;20693;-76
2023/12/25 06:03:25;;;;;;;0.20;0.20;;;11.60;99.90;;;;;;5090664;28;20178;-76
2023/12/25 06:05:50;;;;;;;0.20;0.20;;;11.50;99.90;;;;;;5090609;28;20174;-75
2023/12/25 06:08:16;;;;;;;1.40;0.30;;;11.50;99.90;;;;;;5091935;28;20257;-76
2023/12/25 06:10:42;;;;;;;1.20;0.40;;;11.50;99.90;;;;;;5094778;28;20198;-77
2023/12/25 06:13:07;;;;;;;0.20;0.20;;;11.50;99.90;;;;;;5096021;28;20205;-76
2023/12/25 06:15:33;;;;;;;0.40;0.37;;;11.50;99.90;;;;;;5094456;28;20181;-76
2023/12/25 06:17:59;;;;;;;0.60;0.30;;;11.50;99.90;;;;;;5094501;28;20170;-76
2023/12/25 06:20:25;;;;;;;0.23;0.20;;;11.40;99.90;;;;;;5095710;28;20228;-76
2023/12/25 06:22:51;;;;;;;0.40;0.40;;;11.40;99.90;;;;;;5095663;28;20170;-75
2023/12/25 06:25:16;;;;;;;0.23;0.20;;;11.50;99.90;;;;;;5095698;28;20602;-77
2023/12/25 06:27:42;;;;;;;1.90;0.53;;;11.50;99.90;;;;;;5094250;28;20197;-76
2023/12/25 06:30:08;;;;;;;0.67;0.40;;;11.50;99.90;;;;;;5095928;28;20178;-76
2023/12/25 06:32:33;;;;;;;1.43;0.50;;;11.40;99.90;;;;;;5094189;28;20214;-76
2023/12/25 06:34:59;;;;;;;2.37;0.40;;;11.50;99.90;;;;;;5095713;28;20171;-76
2023/12/25 06:37:24;;;;;;;1.70;0.60;;;11.50;99.90;;;;;;5095316;28;20263;-76
2023/12/25 06:39:50;;;;;;;0.43;0.40;;;11.50;99.90;;;;;;5095521;28;20167;-76
2023/12/25 06:42:15;;;;;;;2.77;0.50;;;11.50;99.90;;;;;;5093925;28;20186;-76
2023/12/25 06:44:41;;;;;;;2.53;0.40;;;11.50;99.90;;;;;;5093898;28;20175;-76
2023/12/25 06:47:06;;;;;;;2.00;0.40;;;11.50;99.90;;;;;;5095330;28;20166;-76
2023/12/25 06:49:32;;;;;;;1.70;0.43;;;11.50;99.90;;;;;;5093932;28;20173;-77
2023/12/25 06:51:59;;;;;;;1.97;0.40;;;11.60;99.90;;;;;;5095142;28;20202;-76
2023/12/25 06:54:24;;;;;;;1.20;0.50;;;11.60;99.90;;;;;;5095240;28;20371;-76
2023/12/25 06:56:50;;;;;;;3.93;0.73;;;11.70;99.90;;;;;;5093942;28;20604;-76
2023/12/25 06:59:15;;;;;;;0.80;0.60;;;11.70;99.90;;;;;;5095265;28;20182;-76
2023/12/25 07:01:41;;;;;;;1.13;0.40;;;11.80;99.90;;;;;;5095146;28;20571;-76
2023/12/25 07:04:09;;;;;;;0.30;0.30;;;11.80;99.90;;;;;;5093799;28;20646;-76
2023/12/25 07:06:35;;;;;;;0.63;0.33;;;11.80;99.90;;;;;;5095615;28;20170;-76
2023/12/25 07:09:00;;;;;;;1.10;0.40;;;11.80;99.90;;;;;;5093732;28;20171;-76
2023/12/25 07:11:27;;;;;;;0.60;0.30;;;11.80;99.90;;;;;;5093621;28;20549;-76
2023/12/25 07:13:55;;;;;;;0.93;0.40;;;11.70;99.90;;;;;;5095159;28;20744;-76
2023/12/25 07:16:25;;;;;;;1.20;0.50;;;11.70;99.90;;;;;;5095016;28;20177;-77
2023/12/25 07:18:53;;;;;;;0.93;0.50;;;11.70;99.90;;;;;;5095526;28;20159;-76
2023/12/25 07:21:19;;;;;;;1.07;0.40;;;11.70;99.90;;;;;;5093200;28;20581;-77
2023/12/25 07:23:46;;;;;;;2.73;0.30;;;11.80;99.90;;;;;;5095167;28;20594;-76
2023/12/25 07:26:11;;;;;;;1.03;0.70;;;11.80;99.90;;;;;;5094759;28;20340;-76
2023/12/25 07:28:37;;;;;;;0.60;0.37;;;11.80;99.90;;;;;;5094719;28;20261;-76
2023/12/25 07:31:03;;;;;;;0.77;0.47;;;11.80;99.90;;;;;;5094570;28;20274;-76
2023/12/25 07:33:28;;;;;;;1.10;0.40;;;11.80;99.90;;;;;;5094490;28;20202;-76
2023/12/25 07:35:54;;;;;;;0.93;0.50;;;11.80;99.90;;;;;;5093315;28;20202;-75
2023/12/25 07:38:22;;;;;;;0.47;0.40;;;11.80;99.90;;;;;;5094614;28;20198;-76
2023/12/25 07:40:49;;;;;;;1.20;0.50;;;11.80;99.90;;;;;;5093339;28;20757;-77
2023/12/25 07:43:15;;;;;;;1.00;0.50;;;11.80;99.90;;;;;;5094674;28;20174;-76
2023/12/25 07:45:41;;;;;;;1.30;0.50;;;11.90;99.90;;;;;;5093151;28;20718;-76
2023/12/25 07:48:06;;;;;;;1.60;0.40;;;11.90;99.90;;;;;;5094590;28;20264;-76
2023/12/25 07:50:32;;;;;;;1.37;0.57;;;11.80;99.90;;;;;;5094440;28;20166;-76
2023/12/25 07:52:58;;;;;;;0.73;0.50;;;11.90;99.90;;;;;;5092933;28;20669;-76
2023/12/25 07:55:24;;;;;;;0.40;0.40;;;11.90;99.90;;;;;;5094279;28;20174;-76
2023/12/25 07:57:49;;;;;;;1.07;0.50;;;11.90;99.90;;;;;;5092802;28;20174;-77
2023/12/25 08:00:15;;;;;;;1.50;0.40;;;11.90;99.90;;;;;;5094259;28;20327;-77
2023/12/25 08:02:40;;;;;;;2.53;0.50;;;11.90;99.90;;;;;;5092601;28;20217;-77
2023/12/25 08:05:06;;;;;;;0.60;0.50;;;12.00;99.90;;;;;;5094011;28;20170;-76
2023/12/25 08:07:32;;;;;;;0.97;0.30;;;11.90;99.90;;;;;;5094249;28;20171;-77
2023/12/25 08:09:58;;;;;;;0.67;0.50;;;11.90;99.90;;;;;;5093985;28;20648;-75
2023/12/25 08:12:23;;;;;;;0.60;0.40;;;11.90;99.90;;;;;;5092345;28;20198;-75
2023/12/25 08:14:49;;;;;;;0.77;0.47;;;11.90;99.90;;;;;;5092611;28;20171;-76
2023/12/25 08:17:17;;;;;;;1.30;0.40;;;11.90;99.90;;;;;;5092578;28;20170;-76
2023/12/25 08:19:42;;;;;;;3.63;0.60;;;11.90;99.90;;;;;;5093840;28;20537;-76
2023/12/25 08:22:08;;;;;;;0.67;0.50;;;11.90;99.90;;;;;;5092319;28;20285;-76
2023/12/25 08:24:35;;;;;;;1.70;0.60;;;11.90;99.90;;;;;;5093608;28;20170;-77
2023/12/25 08:27:00;;;;;;;0.53;0.30;;;12.00;99.90;;;;;;5092305;28;20174;-76
2023/12/25 08:29:26;;;;;;;0.77;0.40;;;11.90;99.90;;;;;;5092253;28;20320;-76
2023/12/25 08:31:52;;;;;;;1.17;0.50;;;11.90;99.90;;;;;;5091956;28;20570;-76
2023/12/25 08:34:17;;;;;;;0.90;0.47;;;11.90;99.90;;;;;;5091644;28;20201;-76
2023/12/25 08:36:43;;;;;;;0.80;0.60;;;11.90;99.90;;;;;;5093501;28;20200;-76
2023/12/25 08:39:08;;;;;;;0.40;0.40;;;12.00;99.90;;;;;;5092230;28;20634;-76
2023/12/25 08:41:34;;;;;;;2.30;0.60;;;12.00;99.90;;;;;;5093402;28;20259;-76
2023/12/25 08:43:59;;;;;;;1.13;0.53;;;12.00;99.90;;;;;;5093685;28;20256;-76
2023/12/25 08:46:26;;;;;;;0.37;0.37;;;12.10;99.90;;;;;;5093263;28;20174;-76
2023/12/25 08:48:52;;;;;;;0.73;0.50;;;12.10;99.90;;;;;;5093399;28;20208;-76
2023/12/25 08:51:18;;;;;;;1.07;0.40;;;12.10;99.90;;;;;;5091814;28;20226;-76
2023/12/25 08:53:44;;;;;;;0.40;0.40;;;12.10;99.90;;;;;;5093397;28;20194;-76
2023/12/25 08:56:10;;;;;;;1.43;0.40;;;12.10;99.90;;;;;;5091738;28;20307;-77
2023/12/25 08:58:36;;;;;;;0.70;0.40;;;12.10;99.90;;;;;;5093038;28;20170;-76
2023/12/25 09:01:02;;;;;;;0.30;0.30;;;12.10;99.90;;;;;;5091577;28;20287;-76
2023/12/25 09:03:27;;;;;;;0.83;0.53;;;12.10;99.90;;;;;;5093257;28;20201;-76
2023/12/25 09:05:54;;;;;;;1.30;0.53;;;12.10;99.90;;;;;;5093221;28;20695;-76
2023/12/25 09:08:22;;;;;;;1.47;0.60;;;12.20;99.90;;;;;;5093521;28;20178;-76
2023/12/25 09:10:47;;;;;;;1.03;0.50;;;12.10;99.90;;;;;;5092814;28;20190;-76
2023/12/25 09:13:13;;;;;;;0.30;0.30;;;12.20;99.90;;;;;;5093094;28;20206;-77
2023/12/25 09:15:38;;;;;;;0.87;0.57;;;12.20;99.90;;;;;;5093439;28;20249;-74
2023/12/25 09:18:04;;;;;;;1.70;0.40;;;12.20;99.90;;;;;;5092897;28;20551;-77
2023/12/25 09:20:29;;;;;;;1.47;0.50;;;12.20;99.90;;;;;;5092718;28;20162;-76
2023/12/25 09:22:55;;;;;;;2.43;0.60;;;12.10;99.90;;;;;;5091920;28;20618;-77
2023/12/25 09:25:20;;;;;;;0.80;0.40;;;12.10;99.90;;;;;;5092620;28;20550;-77
2023/12/25 09:27:46;;;;;;;0.60;0.50;;;12.00;99.90;;;;;;5092882;28;20200;-77
2023/12/25 09:30:12;;;;;;;0.70;0.70;;;12.00;99.90;;;;;;5092656;28;20253;-77
2023/12/25 09:32:39;;;;;;;1.33;0.80;;;11.90;99.90;;;;;;5092355;28;20247;-77
2023/12/25 09:35:08;;;;;;;0.73;0.57;;;11.80;99.90;;;;;;5091320;28;20217;-77
2023/12/25 09:37:33;;;;;;;0.73;0.70;;;11.70;99.90;;;;;;5092924;28;20222;-76
2023/12/25 09:39:59;;;;;;;0.77;0.60;;;11.60;99.90;;;;;;5091476;28;20269;-76
2023/12/25 09:42:25;;;;;;;1.10;0.40;;;11.70;99.90;;;;;;5092558;28;20205;-77
2023/12/25 09:44:53;;;;;;;1.07;0.60;;;11.70;99.90;;;;;;5092322;28;20187;-77
2023/12/25 09:47:19;;;;;;;0.73;0.40;;;11.80;99.90;;;;;;5092773;28;20178;-76
2023/12/25 09:49:45;;;;;;;0.93;0.50;;;11.80;99.90;;;;;;5092410;28;20176;-77
2023/12/25 09:52:12;;;;;;;0.50;0.50;;;11.80;99.90;;;;;;5092522;28;20269;-76
2023/12/25 09:54:39;;;;;;;0.23;0.23;;;11.90;99.90;;;;;;5092911;28;20209;-76
2023/12/25 09:57:05;;;;;;;0.53;0.37;;;11.90;99.90;;;;;;5092512;28;20180;-77
2023/12/25 09:59:31;;;;;;;0.30;0.30;;;11.90;99.90;;;;;;5092720;28;20697;-76
2023/12/25 10:02:02;;;;;;;0.40;0.40;;;11.90;99.90;;;;;;5092526;28;20254;-76
2023/12/25 10:04:29;;;;;;;0.50;0.40;;;12.00;99.90;;;;;;5092570;28;20159;-77
2023/12/25 10:06:54;;;;;;;0.73;0.30;;;11.80;99.90;;;;;;5092752;28;20205;-77
2023/12/25 10:09:20;;;;;;;1.47;0.60;;;11.90;99.90;;;;;;5092821;28;20315;-77
2023/12/25 10:11:45;;;;;;;0.40;0.40;;;11.90;99.90;;;;;;5092387;28;20564;-76
2023/12/25 10:14:11;;;;;;;0.40;0.40;;;12.00;99.90;;;;;;5091003;28;20208;-77
2023/12/25 10:16:36;;;;;;;0.83;0.33;;;12.00;99.90;;;;;;5092300;28;20190;-78
2023/12/25 10:19:02;;;;;;;0.83;0.40;;;12.00;99.90;;;;;;5092513;28;20182;-77
2023/12/25 10:21:44;;;;;;;1.10;0.40;;;12.00;99.90;;;;;;5092374;28;20538;-77
2023/12/25 10:24:14;;;;;;;1.43;0.30;;;12.00;99.90;;;;;;5092384;28;20165;-76
2023/12/25 10:26:40;;;;;;;0.80;0.40;;;12.10;99.90;;;;;;5090693;28;20196;-76
2023/12/25 10:29:08;;;;;;;0.57;0.37;;;12.10;99.90;;;;;;5091954;28;20174;-76
2023/12/25 10:31:35;;;;;;;0.80;0.20;;;12.00;99.90;;;;;;5091975;28;20259;-76
2023/12/25 10:34:01;;;;;;;0.40;0.40;;;12.10;99.90;;;;;;5090500;28;20720;-76
2023/12/25 10:36:26;;;;;;;0.40;0.37;;;12.20;99.90;;;;;;5091905;28;20167;-77
2023/12/25 10:38:52;;;;;;;0.40;0.30;;;12.10;99.90;;;;;;5091776;28;20246;-77
2023/12/25 10:41:30;;;;;;;0.93;0.20;;;12.10;99.90;;;;;;5091758;28;20190;-76
2023/12/25 10:43:56;;;;;;;0.60;0.30;;;12.10;99.90;;;;;;5092251;28;20544;-76
2023/12/25 10:46:23;;;;;;;0.40;0.30;;;12.10;99.90;;;;;;5091844;28;20178;-76
2023/12/25 10:48:51;;;;;;;0.53;0.40;;;12.00;99.90;;;;;;5090170;28;20723;-75
2023/12/25 10:51:37;;;;;;;0.93;0.30;;;12.00;99.90;;;;;;5091642;28;20194;-76
2023/12/25 10:54:04;;;;;;;1.60;0.40;;;12.00;99.90;;;;;;5091980;28;20515;-76
2023/12/25 10:56:39;;;;;;;0.30;0.30;;;12.00;99.90;;;;;;5091030;28;20269;-75
2023/12/25 10:59:17;;;;;;;0.80;0.43;;;12.00;99.90;;;;;;5094196;28;20231;-76
2023/12/25 11:01:45;;;;;;;0.60;0.30;;;11.90;99.90;;;;;;5075225;28;20210;-76
2023/12/25 11:04:14;;;;;;;0.40;0.30;;;11.90;99.90;;;;;;5075123;28;20171;-75
2023/12/25 11:06:40;;;;;;;0.30;0.30;;;11.90;99.90;;;;;;5074903;28;20224;-75
2023/12/25 11:09:06;;;;;;;0.63;0.40;;;11.90;99.90;;;;;;5074789;28;20178;-76
2023/12/25 11:11:32;;;;;;;0.33;0.30;;;11.90;99.90;;;;;;5074783;28;20187;-76
2023/12/25 11:13:57;;;;;;;0.67;0.50;;;11.90;99.90;;;;;;5079852;28;20258;-75
2023/12/25 11:16:23;;;;;;;0.80;0.43;;;11.80;99.90;;;;;;5093593;28;20265;-76
2023/12/25 11:18:49;;;;;;;0.40;0.30;;;11.80;99.90;;;;;;5093547;28;20253;-76
2023/12/25 11:21:19;;;;;;;0.80;0.27;;;11.90;99.90;;;;;;5094784;28;20196;-76
2023/12/25 11:23:48;;;;;;;0.53;0.43;;;11.80;99.90;;;;;;5093543;28;20182;-76
2023/12/25 11:26:16;;;;;;;0.87;0.43;;;11.80;99.90;;;;;;5094812;28;20280;-76
2023/12/25 11:28:42;;;;;;;0.67;0.40;;;11.80;99.90;;;;;;5094859;28;20642;-76
2023/12/25 11:31:08;;;;;;;0.80;0.40;;;11.80;99.90;;;;;;5092641;28;20202;-77
2023/12/25 11:33:47;;;;;;;0.37;0.33;;;11.80;99.90;;;;;;5093474;28;20206;-77
2023/12/25 11:36:17;;;;;;;1.87;0.40;;;11.80;99.90;;;;;;5093367;28;20220;-76
2023/12/25 11:38:45;;;;;;;1.30;0.30;;;11.80;99.90;;;;;;5093344;28;20272;-77
2023/12/25 11:41:18;;;;;;;1.70;0.50;;;11.80;99.90;;;;;;5094488;28;20240;-76
2023/12/25 11:43:46;;;;;;;0.53;0.50;;;11.80;99.90;;;;;;5093183;28;20181;-76
2023/12/25 11:46:19;;;;;;;0.40;0.40;;;11.80;99.90;;;;;;5093380;28;20174;-76
2023/12/25 11:48:46;;;;;;;1.00;0.70;;;11.90;99.90;;;;;;5093538;28;20193;-76
2023/12/25 11:51:24;;;;;;;0.50;0.50;;;11.90;99.90;;;;;;5092937;28;20642;-76
2023/12/25 11:53:57;;;;;;;1.43;0.73;;;11.90;99.90;;;;;;5092856;28;20194;-76
2023/12/25 11:56:23;;;;;;;0.60;0.60;;;11.90;99.90;;;;;;5093015;28;20557;-76
2023/12/25 11:58:50;;;;;;;0.40;0.40;;;11.90;99.90;;;;;;5092388;28;20257;-77
2023/12/25 12:01:17;;;;;;;1.20;0.60;;;11.90;99.90;;;;;;5094153;28;20247;-77
2023/12/25 12:03:47;;;;;;;1.83;0.50;;;11.90;99.90;;;;;;5094091;28;20192;-77
2023/12/25 12:06:14;;;;;;;1.23;0.50;;;11.90;99.90;;;;;;5094159;28;20190;-76
2023/12/25 12:08:43;;;;;;;1.40;0.70;;;11.90;99.90;;;;;;5090339;28;20186;-77
2023/12/25 12:11:11;;;;;;;2.00;0.60;;;11.90;99.90;;;;;;5092093;28;20608;-77
2023/12/25 12:13:36;;;;;;;0.63;0.60;;;11.90;99.90;;;;;;5093391;28;20208;-76
2023/12/25 12:16:03;;;;;;;0.50;0.50;;;11.80;99.90;;;;;;5093874;28;20238;-76
2023/12/25 12:18:29;;;;;;;0.70;0.60;;;11.80;99.90;;;;;;5092571;28;20174;-76
2023/12/25 12:20:55;;;;;;;0.60;0.60;;;11.80;99.90;;;;;;5092369;28;20205;-76
2023/12/25 12:23:21;;;;;;;0.80;0.53;;;11.80;99.90;;;;;;5093257;28;20252;-76
2023/12/25 12:25:47;;;;;;;0.63;0.43;;;11.80;99.90;;;;;;5093800;28;20593;-76
2023/12/25 12:28:16;;;;;;;2.10;0.60;;;11.80;99.90;;;;;;5093757;28;20174;-77
2023/12/25 12:30:42;;;;;;;0.40;0.40;;;11.80;99.90;;;;;;5093536;28;20210;-76
2023/12/25 12:33:12;;;;;;;0.77;0.50;;;11.90;99.90;;;;;;5091886;28;20620;-79
2023/12/25 12:35:39;;;;;;;0.50;0.50;;;11.80;99.90;;;;;;5092244;28;20170;-77
2023/12/25 12:38:05;;;;;;;1.53;0.70;;;11.90;99.90;;;;;;5093518;28;20163;-76
2023/12/25 12:40:31;;;;;;;1.20;0.60;;;11.90;99.90;;;;;;5092201;28;20592;-77
2023/12/25 12:42:56;;;;;;;0.70;0.70;;;11.80;99.90;;;;;;5093316;28;20174;-76